Umpqua, OR

3:06 PM PDT on October 23, 2014 (GMT -0700)
Roseburg Regional | Change Station
CLOSE
Current Station
Airport
Location: Roseburg,
Elevation: 525 ft
Nearby Weather Stations

Elev 525 ft 43.24 °N, 123.36 °W | Updated 13 minutes ago

Overcast
Overcast
61 °F
Feels Like 61 °F
N
4
Wind Variable Wind from South

Today
High -- | Low -- °F
--% Chance of Precip.
Yesterday
High -- | Low -- °F
Precip. -- in
7:37 AM 6:18 PM
New Moon, 0% visible
Pressure 29.97 in
Visibility 10.0 miles
Clouds Few 4200 ft
Dew Point 51 °F
Humidity 70%
Rainfall 0.36 in
Snow Depth Not available.
UV 3 out of 12
Pollen .30 out of 12
Air Quality Not available.
Flu Activity Sporadic
METAR KRBG 232153Z AUTO 18003KT 10SM FEW042 16/11 A2997 RMK AO2 SLP149 T01610106

More Conditions Fewer Conditions

Pressure 29.97 in
Visibility 10.0 miles
Clouds Few 4200 ft
Dew Point 51 °F
Humidity 70%
Rainfall 0.36 in
Snow Depth Not available.
UV 3 out of 12
Pollen .30 out of 12
Air Quality Not available.
Flu Activity Sporadic
METAR KRBG 232153Z AUTO 18003KT 10SM FEW042 16/11 A2997 RMK AO2 SLP149 T01610106

More Conditions Fewer Conditions

10-Day Weather Forecast

Almanac

Astronomy

Oct. 23, 2014 Rise Set
Actual Time 7:37 AM PDT 6:18 PM PDT
Civil Twilight 7:08 AM PDT 6:47 PM PDT
Nautical Twilight 6:35 AM PDT 7:20 PM PDT
Astronomical Twilight 6:02 AM PDT 7:53 PM PDT
Moon 7:22 AM PDT 6:22 PM PDT
Length of Visible Light 11h 38m
Length of Day
10h 40m
Tomorrow will be 2m 47s shorter.
New Moon, 0% of the Moon is Illuminated
Today
New Moon
Oct 30
First Quarter
Nov 6
Full
Nov 14
Last Quarter
Nov 22
New

Today's Extremes

State Highs State Lows

Community

WunderPhotos

Upload Photos

1,764,383 photos uploaded!

WunderBlogs® & News

Nearby

Snow Depth

Station Depth Elevation
Holland Meadows 0 in 4900 ft
Diamond Lake 0 in 5315 ft
Salt Creek Falls 0 in 4000 ft
Cascade Summit 0 in 4880 ft
Annie Springs 0 in 6020 ft

Earthquake Activity

City Distance Mag. Time & Date
Crescent City, California 140 miles 2.6 1:22 AM PDT
2014-10-21
Minimum magnitude displayed is 2.5.

Coastal Water Temperatures

Place Temperature
Port Orford, OR 59.0 °F
Charleston, OR 59.0 °F
South Beach, OR 60.1 °F

Nearby Weather Stations